Time;durP1;ratioP1;P1;durP2;ratioP2;P2;SDS_P1;SDS_P2;PMS_P1;PMS_P2;Temp;Humidity;BMP_temperature;BMP_pressure;BME280_temperature;BME280_humidity;BME280_pressure;Samples;Min_cycle;Max_cycle;Signal;HPM_P1;HPM_P2
2023/08/19 00:02:06;;;;;;;20.20;18.25;;;21.40;99.90;;;;;;5015393;28;20040;-64
2023/08/19 00:04:32;;;;;;;20.13;18.33;;;21.30;99.90;;;;;;4998576;28;20304;-65
2023/08/19 00:06:57;;;;;;;17.88;16.30;;;21.50;99.90;;;;;;5015204;28;20048;-64
2023/08/19 00:09:23;;;;;;;18.80;17.10;;;21.60;99.90;;;;;;5014777;28;20040;-65
2023/08/19 00:11:48;;;;;;;19.52;17.50;;;21.50;99.90;;;;;;5031384;28;20037;-64
2023/08/19 00:14:14;;;;;;;19.77;17.92;;;21.50;99.90;;;;;;5031503;28;20048;-64
2023/08/19 00:16:40;;;;;;;17.83;16.30;;;21.50;99.90;;;;;;5014513;28;20036;-65
2023/08/19 00:19:05;;;;;;;19.10;17.17;;;21.40;99.90;;;;;;5030939;28;20141;-64
2023/08/19 00:21:31;;;;;;;18.77;17.10;;;21.30;99.90;;;;;;5031859;28;20048;-65
2023/08/19 00:23:57;;;;;;;19.40;17.77;;;21.30;99.90;;;;;;5031164;28;20370;-64
2023/08/19 00:26:25;;;;;;;19.27;17.52;;;21.50;99.90;;;;;;5014607;28;20195;-64
2023/08/19 00:28:50;;;;;;;19.55;17.75;;;21.40;99.90;;;;;;5014729;28;20745;-63
2023/08/19 00:31:16;;;;;;;19.73;17.98;;;21.40;99.90;;;;;;5032325;28;20119;-65
2023/08/19 00:33:42;;;;;;;21.33;19.17;;;21.30;99.90;;;;;;5014536;28;20194;-65
2023/08/19 00:36:07;;;;;;;17.52;15.95;;;21.20;99.90;;;;;;5031341;28;20373;-65
2023/08/19 00:38:33;;;;;;;20.50;18.60;;;21.40;99.90;;;;;;5013728;28;20454;-65
2023/08/19 00:40:59;;;;;;;21.92;19.77;;;21.20;99.90;;;;;;5031491;28;20132;-65
2023/08/19 00:43:25;;;;;;;22.25;20.15;;;21.40;99.90;;;;;;5031010;28;20336;-65
2023/08/19 00:45:52;;;;;;;21.77;19.85;;;21.40;99.90;;;;;;5014535;28;20048;-65
2023/08/19 00:48:19;;;;;;;21.77;19.67;;;21.10;99.90;;;;;;5030550;28;20310;-65
2023/08/19 00:50:45;;;;;;;22.40;20.42;;;21.10;99.90;;;;;;5030786;28;20036;-65
2023/08/19 00:53:13;;;;;;;22.92;20.83;;;21.10;99.90;;;;;;5030935;28;20332;-65
2023/08/19 00:55:39;;;;;;;22.98;20.85;;;21.20;99.90;;;;;;5030815;28;20386;-65
2023/08/19 00:58:07;;;;;;;23.73;21.35;;;21.20;99.90;;;;;;5030114;28;20476;-65
2023/08/19 01:00:34;;;;;;;19.35;17.55;;;21.10;99.90;;;;;;5013974;28;20330;-65
2023/08/19 01:03:04;;;;;;;22.83;20.63;;;21.00;99.90;;;;;;5032299;28;20499;-66
2023/08/19 01:05:59;;;;;;;23.95;21.80;;;21.10;99.90;;;;;;5031132;28;20045;-65
2023/08/19 01:08:34;;;;;;;25.08;22.77;;;20.90;99.90;;;;;;5017645;28;20036;-65
2023/08/19 01:11:10;;;;;;;24.73;22.63;;;21.10;99.90;;;;;;5030795;28;20048;-65
2023/08/19 01:13:48;;;;;;;24.30;21.98;;;21.10;99.90;;;;;;5013665;28;20040;-64
2023/08/19 01:16:26;;;;;;;24.42;22.05;;;20.90;99.90;;;;;;5030617;28;20041;-65
2023/08/19 01:18:54;;;;;;;24.58;22.33;;;20.90;99.90;;;;;;5030429;28;20427;-65
2023/08/19 01:21:22;;;;;;;26.10;23.65;;;20.80;99.90;;;;;;5014199;28;20472;-65
2023/08/19 01:23:51;;;;;;;27.58;25.08;;;21.00;99.90;;;;;;5029635;28;20127;-65
2023/08/19 01:26:17;;;;;;;25.73;23.52;;;20.80;99.90;;;;;;5030122;28;20094;-65
2023/08/19 01:28:43;;;;;;;26.92;24.33;;;20.80;99.90;;;;;;5029482;28;20155;-65
2023/08/19 01:31:09;;;;;;;23.80;21.67;;;20.90;99.90;;;;;;5028569;28;20098;-65
2023/08/19 01:33:35;;;;;;;26.67;24.27;;;21.00;99.90;;;;;;5030404;28;20102;-65
2023/08/19 01:36:22;;;;;;;26.45;24.15;;;21.20;99.90;;;;;;5013382;28;20487;-64
2023/08/19 01:38:56;;;;;;;25.08;22.88;;;20.90;99.90;;;;;;5027862;28;20041;-64
2023/08/19 01:41:23;;;;;;;27.58;25.00;;;20.70;99.90;;;;;;5030420;28;20203;-64
2023/08/19 01:43:49;;;;;;;26.38;23.88;;;21.10;99.90;;;;;;5030062;28;20272;-64
2023/08/19 01:46:15;;;;;;;26.98;24.60;;;21.00;99.90;;;;;;5029840;28;20074;-64
2023/08/19 01:48:41;;;;;;;27.65;25.05;;;20.80;99.90;;;;;;5029469;28;20300;-64
2023/08/19 01:51:07;;;;;;;28.05;25.58;;;20.70;99.90;;;;;;5013312;28;20214;-64
2023/08/19 01:53:33;;;;;;;29.42;26.48;;;20.70;99.90;;;;;;5030192;28;20048;-65
2023/08/19 01:55:58;;;;;;;28.83;26.25;;;20.70;99.90;;;;;;5029127;28;20039;-64
2023/08/19 01:58:24;;;;;;;28.95;26.45;;;20.80;99.90;;;;;;5012743;28;20041;-64
2023/08/19 02:00:50;;;;;;;28.50;25.83;;;20.60;99.90;;;;;;4996621;28;20036;-65
2023/08/19 02:03:15;;;;;;;27.40;25.00;;;20.70;99.90;;;;;;5029296;28;20507;-65
2023/08/19 02:05:41;;;;;;;28.50;25.83;;;20.60;99.90;;;;;;5012581;28;20289;-65
2023/08/19 02:08:07;;;;;;;28.63;25.92;;;20.50;99.90;;;;;;5029021;28;20083;-65
2023/08/19 02:10:33;;;;;;;29.73;26.75;;;20.90;99.90;;;;;;5012762;28;20045;-65
2023/08/19 02:12:58;;;;;;;30.25;27.20;;;20.90;99.90;;;;;;5013163;28;20095;-65
2023/08/19 02:15:24;;;;;;;28.60;26.10;;;20.80;99.90;;;;;;5029910;28;20106;-65
2023/08/19 02:17:50;;;;;;;29.60;27.00;;;20.90;99.90;;;;;;5028596;28;20063;-65
2023/08/19 02:20:15;;;;;;;28.00;25.48;;;20.90;99.90;;;;;;5029377;28;20459;-64
2023/08/19 02:22:41;;;;;;;29.50;26.77;;;20.50;99.90;;;;;;5011776;28;20155;-64
2023/08/19 02:25:08;;;;;;;27.83;25.35;;;20.80;99.90;;;;;;5028653;28;20064;-65
2023/08/19 02:27:33;;;;;;;28.45;25.65;;;20.60;99.90;;;;;;5029379;28;20303;-65
2023/08/19 02:29:59;;;;;;;28.05;25.55;;;20.80;99.90;;;;;;5028444;28;20487;-64
2023/08/19 02:32:26;;;;;;;27.67;25.27;;;20.60;99.90;;;;;;5028808;28;20048;-64
2023/08/19 02:34:51;;;;;;;27.50;25.05;;;20.70;99.90;;;;;;5029739;28;20047;-65
2023/08/19 02:37:17;;;;;;;27.58;25.02;;;20.80;99.90;;;;;;5011764;28;20049;-65
2023/08/19 02:39:42;;;;;;;27.60;25.10;;;20.50;99.90;;;;;;5028391;28;20099;-65
2023/08/19 02:42:08;;;;;;;27.45;24.90;;;20.70;99.90;;;;;;5028939;28;20036;-64
2023/08/19 02:44:35;;;;;;;28.50;25.80;;;20.60;99.90;;;;;;5012235;28;20044;-65
2023/08/19 02:47:01;;;;;;;29.20;26.25;;;21.00;99.90;;;;;;5034963;28;20361;-65
2023/08/19 02:49:26;;;;;;;27.35;24.85;;;20.50;99.90;;;;;;5018306;28;20048;-66
2023/08/19 02:51:52;;;;;;;30.00;25.88;;;20.80;99.90;;;;;;5035381;28;20051;-65
2023/08/19 02:54:18;;;;;;;27.33;24.83;;;20.90;99.90;;;;;;5035113;28;20329;-64
2023/08/19 02:56:45;;;;;;;27.45;24.95;;;20.40;99.90;;;;;;5018843;28;20131;-63
2023/08/19 02:59:11;;;;;;;27.75;25.30;;;20.70;99.90;;;;;;5019285;28;20235;-65
2023/08/19 03:01:37;;;;;;;28.08;25.42;;;20.50;99.90;;;;;;5035130;28;20530;-64
2023/08/19 03:04:02;;;;;;;27.80;25.30;;;20.50;99.90;;;;;;5035631;28;20045;-64
2023/08/19 03:06:28;;;;;;;28.05;25.55;;;20.50;99.90;;;;;;5034673;28;20412;-65
2023/08/19 03:08:54;;;;;;;28.00;25.30;;;20.60;99.90;;;;;;5035152;28;20076;-64
2023/08/19 03:11:19;;;;;;;28.45;25.63;;;20.70;99.90;;;;;;5035143;28;20045;-65
2023/08/19 03:13:45;;;;;;;29.52;26.60;;;20.80;99.90;;;;;;5035719;28;20044;-64
2023/08/19 03:16:11;;;;;;;27.13;24.83;;;20.80;99.90;;;;;;5035138;28;20113;-64
2023/08/19 03:18:36;;;;;;;27.25;24.50;;;20.40;99.90;;;;;;5034559;28;20503;-64
2023/08/19 03:21:02;;;;;;;27.17;24.67;;;20.60;99.90;;;;;;5017418;28;20044;-64
2023/08/19 03:23:28;;;;;;;27.23;24.70;;;20.40;99.90;;;;;;5034089;28;20221;-64
2023/08/19 03:25:56;;;;;;;27.67;25.08;;;20.80;99.90;;;;;;5018198;28;20072;-64
2023/08/19 03:28:22;;;;;;;27.35;24.98;;;20.50;99.90;;;;;;5034953;28;20547;-65
2023/08/19 03:30:48;;;;;;;27.35;24.63;;;20.40;99.90;;;;;;5017841;28;20128;-64
2023/08/19 03:33:14;;;;;;;26.00;23.55;;;20.50;99.90;;;;;;5034983;28;20399;-64
2023/08/19 03:35:39;;;;;;;28.13;25.52;;;20.40;99.90;;;;;;5033976;28;20555;-64
2023/08/19 03:38:05;;;;;;;26.88;24.20;;;20.70;99.90;;;;;;5034936;28;20045;-64
2023/08/19 03:40:31;;;;;;;27.00;24.48;;;20.60;99.90;;;;;;5018020;28;20605;-64
2023/08/19 03:42:56;;;;;;;27.67;24.92;;;20.50;99.90;;;;;;5035411;28;20107;-63
2023/08/19 03:45:22;;;;;;;27.30;24.70;;;20.70;99.90;;;;;;5035468;28;20037;-64
2023/08/19 03:47:48;;;;;;;27.42;24.95;;;20.80;99.90;;;;;;5034240;28;20366;-64
2023/08/19 03:50:13;;;;;;;26.35;23.88;;;20.40;99.90;;;;;;5035064;28;20044;-63
2023/08/19 03:52:39;;;;;;;28.40;25.35;;;20.80;99.90;;;;;;5034803;28;20041;-64
2023/08/19 03:55:06;;;;;;;29.02;26.15;;;20.70;99.90;;;;;;5035168;28;20102;-64
2023/08/19 03:57:31;;;;;;;26.23;23.50;;;20.50;99.90;;;;;;5016094;28;20106;-64
2023/08/19 03:59:57;;;;;;;27.95;25.35;;;20.40;99.90;;;;;;5015528;28;20550;-64
2023/08/19 04:02:23;;;;;;;28.58;25.73;;;20.60;99.90;;;;;;5031736;28;20049;-65
2023/08/19 04:05:05;;;;;;;26.17;23.65;;;20.40;99.90;;;;;;5031561;28;20318;-64
2023/08/19 04:07:31;;;;;;;26.10;23.73;;;20.70;99.90;;;;;;5000779;28;20560;-65
2023/08/19 04:09:57;;;;;;;25.98;23.55;;;20.40;99.90;;;;;;5015622;28;20040;-65
2023/08/19 04:12:24;;;;;;;27.95;25.20;;;20.70;99.90;;;;;;5031781;28;20049;-65
2023/08/19 04:14:50;;;;;;;29.33;26.48;;;20.60;99.90;;;;;;5013460;28;20060;-65
2023/08/19 04:17:16;;;;;;;28.15;25.40;;;20.50;99.90;;;;;;5030813;28;20037;-66
2023/08/19 04:19:42;;;;;;;28.45;25.73;;;20.50;99.90;;;;;;5030961;28;20126;-65
2023/08/19 04:22:10;;;;;;;29.45;26.55;;;20.60;99.90;;;;;;5031148;28;20059;-65
2023/08/19 04:24:37;;;;;;;27.55;25.02;;;20.50;99.90;;;;;;5031407;28;20628;-65
2023/08/19 04:27:03;;;;;;;28.52;25.83;;;20.70;99.90;;;;;;5030945;28;20260;-64
2023/08/19 04:29:32;;;;;;;27.65;25.10;;;20.70;99.90;;;;;;5014516;28;20080;-64
2023/08/19 04:32:02;;;;;;;28.95;26.02;;;20.50;99.90;;;;;;5013668;28;20254;-64
2023/08/19 04:34:29;;;;;;;28.75;26.05;;;20.50;99.90;;;;;;5046890;28;20365;-66
2023/08/19 04:36:55;;;;;;;28.73;26.02;;;20.50;99.90;;;;;;5029989;28;20041;-65
2023/08/19 04:39:21;;;;;;;29.52;26.25;;;20.40;99.90;;;;;;5031768;28;20044;-66
2023/08/19 04:41:47;;;;;;;29.00;25.95;;;20.50;99.90;;;;;;5030761;28;20227;-64
2023/08/19 04:44:13;;;;;;;27.10;24.60;;;20.70;99.90;;;;;;5031255;28;20065;-64
2023/08/19 04:46:38;;;;;;;26.33;23.70;;;20.80;99.90;;;;;;5029874;28;20586;-64
2023/08/19 04:49:05;;;;;;;27.27;24.52;;;20.80;99.90;;;;;;5030951;28;20111;-64
2023/08/19 04:51:32;;;;;;;28.63;25.58;;;20.50;99.90;;;;;;5013725;28;20048;-65
2023/08/19 04:53:58;;;;;;;27.83;25.33;;;20.60;99.90;;;;;;5031144;28;20296;-65
2023/08/19 04:56:23;;;;;;;28.17;25.48;;;20.90;99.90;;;;;;5030345;28;20052;-65
2023/08/19 04:58:49;;;;;;;26.17;23.85;;;20.90;99.90;;;;;;5013882;28;20045;-65
2023/08/19 05:01:15;;;;;;;28.95;24.05;;;20.90;99.90;;;;;;5030435;28;20083;-65
2023/08/19 05:03:40;;;;;;;25.33;22.83;;;20.60;99.90;;;;;;5030828;28;20055;-65
2023/08/19 05:06:07;;;;;;;25.55;23.05;;;21.00;99.90;;;;;;5012975;28;20040;-64
2023/08/19 05:08:32;;;;;;;23.92;21.70;;;21.00;99.90;;;;;;5029347;28;20805;-64
2023/08/19 05:10:58;;;;;;;24.77;22.40;;;20.80;99.90;;;;;;5030161;28;20037;-65
2023/08/19 05:13:24;;;;;;;24.10;21.80;;;21.10;99.90;;;;;;5014168;28;20125;-64
2023/08/19 05:15:49;;;;;;;23.80;21.25;;;20.90;99.90;;;;;;5030210;28;20068;-65
2023/08/19 05:18:15;;;;;;;21.77;19.88;;;21.10;99.90;;;;;;5030608;28;20285;-65
2023/08/19 05:20:41;;;;;;;22.25;20.02;;;20.90;99.90;;;;;;5029940;28;20135;-65
2023/08/19 05:23:07;;;;;;;19.52;17.75;;;21.30;99.90;;;;;;5030382;28;20183;-64
2023/08/19 05:25:32;;;;;;;17.48;15.77;;;21.20;99.90;;;;;;5030131;28;20041;-65
2023/08/19 05:27:58;;;;;;;17.70;15.98;;;21.20;99.90;;;;;;5012810;28;20037;-64
2023/08/19 05:30:24;;;;;;;16.90;15.20;;;21.40;99.90;;;;;;5011100;28;20064;-64
2023/08/19 05:32:50;;;;;;;16.92;15.32;;;21.50;99.90;;;;;;5028783;28;20036;-65
2023/08/19 05:35:16;;;;;;;15.82;14.32;;;21.50;99.90;;;;;;5029868;28;20048;-65
2023/08/19 05:37:42;;;;;;;15.13;13.73;;;21.60;99.90;;;;;;5029078;28;20037;-64
2023/08/19 05:40:08;;;;;;;15.77;14.27;;;21.70;99.90;;;;;;5013605;28;20516;-64
2023/08/19 05:42:34;;;;;;;16.10;14.23;;;21.80;99.90;;;;;;5010514;28;22026;-64
2023/08/19 05:45:00;;;;;;;16.02;14.43;;;22.00;99.90;;;;;;5012997;28;20189;-65
2023/08/19 05:47:26;;;;;;;15.07;13.70;;;22.20;99.90;;;;;;5031213;28;20049;-64
2023/08/19 05:49:52;;;;;;;14.25;13.02;;;22.20;99.90;;;;;;5029110;28;20048;-65
2023/08/19 05:52:18;;;;;;;14.70;12.63;;;22.50;99.90;;;;;;5029557;28;20076;-65
2023/08/19 05:54:43;;;;;;;13.80;12.38;;;22.50;99.90;;;;;;5030634;28;20143;-65
2023/08/19 05:57:09;;;;;;;12.65;11.50;;;22.70;99.90;;;;;;5029893;28;20051;-66
2023/08/19 05:59:35;;;;;;;12.80;11.70;;;22.90;99.90;;;;;;5012317;28;20072;-65
2023/08/19 06:02:01;;;;;;;12.35;11.05;;;23.10;99.90;;;;;;5012124;28;20110;-66
2023/08/19 06:04:27;;;;;;;12.00;10.93;;;23.30;99.90;;;;;;5027993;28;20048;-66
2023/08/19 06:06:53;;;;;;;11.80;10.70;;;23.30;99.90;;;;;;5030419;28;20246;-64
2023/08/19 06:09:19;;;;;;;13.35;12.18;;;23.50;99.90;;;;;;5030739;28;20041;-65
2023/08/19 06:11:51;;;;;;;13.45;11.98;;;23.60;99.90;;;;;;5030656;28;20036;-64
2023/08/19 06:14:17;;;;;;;13.85;12.43;;;23.50;99.90;;;;;;5013760;28;20588;-64
2023/08/19 06:16:43;;;;;;;15.18;13.77;;;23.40;99.90;;;;;;5013127;28;20565;-64
2023/08/19 06:19:09;;;;;;;14.32;12.90;;;23.40;99.90;;;;;;5013821;28;20206;-65
2023/08/19 06:21:35;;;;;;;13.90;12.50;;;23.40;99.90;;;;;;5032258;28;20087;-65
2023/08/19 06:24:01;;;;;;;14.00;12.55;;;23.50;99.90;;;;;;5029866;28;20041;-66
2023/08/19 06:26:27;;;;;;;14.32;13.02;;;23.70;99.90;;;;;;5012711;28;20876;-65
2023/08/19 06:28:53;;;;;;;14.88;13.35;;;23.70;99.90;;;;;;5011896;28;20068;-65
2023/08/19 06:31:19;;;;;;;13.80;12.60;;;23.80;99.90;;;;;;5029033;28;20127;-64
2023/08/19 06:33:45;;;;;;;13.98;12.63;;;23.80;99.90;;;;;;5028963;28;20037;-66
2023/08/19 06:36:16;;;;;;;14.30;13.05;;;23.90;99.90;;;;;;5012165;28;20036;-65
2023/08/19 06:38:48;;;;;;;14.85;13.52;;;23.80;99.90;;;;;;5029055;28;20036;-65
2023/08/19 06:41:16;;;;;;;15.40;13.90;;;23.70;99.90;;;;;;5012307;28;20048;-65
2023/08/19 06:43:43;;;;;;;15.55;13.98;;;23.50;99.90;;;;;;5011533;28;20048;-65
2023/08/19 06:46:09;;;;;;;14.98;13.60;;;23.40;99.90;;;;;;5031124;28;20422;-65
2023/08/19 06:48:35;;;;;;;15.65;14.05;;;23.30;99.90;;;;;;5014462;28;20048;-65
2023/08/19 06:51:02;;;;;;;15.48;14.07;;;23.40;99.90;;;;;;5013480;28;20124;-65
2023/08/19 06:53:29;;;;;;;16.42;14.93;;;23.20;99.90;;;;;;5031348;28;20056;-65
2023/08/19 06:56:23;;;;;;;16.20;14.70;;;23.20;99.90;;;;;;4997871;28;20051;-65
2023/08/19 06:58:54;;;;;;;17.40;14.27;;;23.20;99.90;;;;;;5030990;28;20057;-67
2023/08/19 07:01:26;;;;;;;16.30;14.65;;;23.10;99.90;;;;;;5014365;28;20045;-66
2023/08/19 07:03:52;;;;;;;16.13;14.63;;;23.20;99.90;;;;;;5030171;28;20041;-66
2023/08/19 07:06:23;;;;;;;12.98;11.88;;;23.20;99.90;;;;;;5013410;28;20051;-64
2023/08/19 07:08:50;;;;;;;12.80;11.48;;;23.20;99.90;;;;;;5031179;28;20045;-64
2023/08/19 07:11:16;;;;;;;11.40;9.80;;;23.20;99.90;;;;;;5014906;28;20749;-65
2023/08/19 07:13:45;;;;;;;11.85;10.57;;;23.30;99.90;;;;;;5030048;28;20060;-65
2023/08/19 07:16:12;;;;;;;10.95;9.85;;;23.30;99.90;;;;;;5029580;28;20400;-65
2023/08/19 07:18:40;;;;;;;12.02;10.20;;;23.30;99.90;;;;;;5029399;28;20431;-65
2023/08/19 07:21:13;;;;;;;12.43;10.15;;;23.40;99.90;;;;;;5029082;28;20592;-65
2023/08/19 07:23:45;;;;;;;11.55;9.80;;;23.30;99.90;;;;;;5013321;28;20526;-65
2023/08/19 07:26:11;;;;;;;13.83;10.50;;;23.30;99.90;;;;;;5029709;28;20714;-65
2023/08/19 07:28:37;;;;;;;10.55;9.50;;;23.40;99.90;;;;;;5029121;28;20283;-65
2023/08/19 07:31:06;;;;;;;11.23;9.85;;;23.40;99.90;;;;;;5029198;28;20045;-65
2023/08/19 07:33:32;;;;;;;11.30;9.95;;;23.40;99.90;;;;;;5012960;28;20033;-65
2023/08/19 07:35:58;;;;;;;11.30;10.20;;;23.30;99.90;;;;;;5033725;28;20060;-66
2023/08/19 07:38:24;;;;;;;10.27;9.20;;;23.30;99.90;;;;;;5033025;28;20490;-65
2023/08/19 07:40:50;;;;;;;9.70;8.90;;;23.40;99.90;;;;;;5016504;28;20690;-65
2023/08/19 07:43:15;;;;;;;11.30;9.70;;;23.40;99.90;;;;;;5033423;28;20235;-65
2023/08/19 07:45:41;;;;;;;11.35;9.75;;;23.40;99.90;;;;;;5033208;28;20507;-65
2023/08/19 07:48:07;;;;;;;10.88;9.18;;;23.50;99.90;;;;;;5015741;28;20339;-65
2023/08/19 07:50:32;;;;;;;11.57;9.60;;;23.50;99.90;;;;;;5033451;28;20060;-64
2023/08/19 07:52:58;;;;;;;10.73;9.63;;;23.50;99.90;;;;;;5033531;28;20068;-64
2023/08/19 07:55:24;;;;;;;12.10;9.73;;;23.60;99.90;;;;;;5033328;28;20045;-65
2023/08/19 07:57:49;;;;;;;12.98;9.15;;;23.70;99.90;;;;;;5033357;28;20053;-65
2023/08/19 08:00:15;;;;;;;9.57;8.77;;;23.80;99.90;;;;;;5016970;28;20164;-65
2023/08/19 08:02:41;;;;;;;11.13;8.57;;;23.80;99.90;;;;;;5016397;28;20317;-62
2023/08/19 08:05:07;;;;;;;11.00;8.15;;;23.90;99.90;;;;;;5017291;28;20049;-65
2023/08/19 08:07:33;;;;;;;11.70;8.30;;;24.00;99.90;;;;;;5032877;28;20128;-65
2023/08/19 08:09:58;;;;;;;9.65;8.80;;;24.00;99.90;;;;;;5016746;28;20069;-64
2023/08/19 08:12:24;;;;;;;9.10;8.13;;;24.10;99.90;;;;;;5032926;28;20596;-65
2023/08/19 08:14:51;;;;;;;8.80;8.00;;;24.10;99.90;;;;;;4999694;28;20052;-64
2023/08/19 08:17:16;;;;;;;9.35;7.78;;;24.10;99.90;;;;;;5016436;28;20053;-64
2023/08/19 08:19:43;;;;;;;8.13;7.28;;;24.20;99.90;;;;;;5016605;28;20462;-64
2023/08/19 08:22:09;;;;;;;8.55;7.65;;;24.20;99.90;;;;;;5032727;28;20109;-65
2023/08/19 08:24:34;;;;;;;8.35;7.57;;;24.30;99.90;;;;;;5015943;28;20053;-65
2023/08/19 08:27:00;;;;;;;8.30;7.60;;;24.40;99.90;;;;;;5016036;28;20037;-65
2023/08/19 08:29:26;;;;;;;9.50;7.53;;;24.60;99.90;;;;;;4999728;28;20045;-65
2023/08/19 08:31:51;;;;;;;7.75;6.95;;;24.70;99.90;;;;;;5032395;28;20051;-64
2023/08/19 08:34:17;;;;;;;8.48;7.10;;;24.70;99.90;;;;;;5016266;28;20458;-65
2023/08/19 08:36:43;;;;;;;7.70;6.88;;;24.80;99.90;;;;;;5016326;28;20051;-64
2023/08/19 08:39:08;;;;;;;7.20;6.60;;;24.80;99.90;;;;;;5015148;28;20564;-65
2023/08/19 08:41:38;;;;;;;8.20;7.40;;;24.90;99.90;;;;;;5032063;28;20442;-65
2023/08/19 08:44:06;;;;;;;8.23;7.15;;;24.90;99.90;;;;;;5031644;28;20171;-65
2023/08/19 08:46:33;;;;;;;7.43;6.63;;;24.90;99.90;;;;;;5031579;28;20593;-65
2023/08/19 08:49:00;;;;;;;7.43;6.75;;;25.00;99.90;;;;;;5015334;28;20041;-66
2023/08/19 08:51:26;;;;;;;7.53;6.80;;;25.10;99.90;;;;;;5031700;28;20539;-65
2023/08/19 08:53:55;;;;;;;7.82;7.05;;;25.10;99.90;;;;;;5031826;28;20116;-64
2023/08/19 08:56:25;;;;;;;7.30;6.63;;;25.10;99.90;;;;;;5030285;28;20085;-65
2023/08/19 08:58:51;;;;;;;7.90;6.38;;;25.20;99.90;;;;;;5031671;28;20118;-64
2023/08/19 09:01:17;;;;;;;6.60;5.88;;;25.20;99.90;;;;;;5015378;28;20045;-64
2023/08/19 09:03:45;;;;;;;7.78;6.07;;;25.20;99.90;;;;;;5032621;28;20550;-65
2023/08/19 09:06:15;;;;;;;9.15;5.75;;;25.30;99.90;;;;;;5031059;28;20079;-64
2023/08/19 09:09:02;;;;;;;7.28;5.63;;;25.50;99.90;;;;;;5014807;28;20064;-65
2023/08/19 09:11:28;;;;;;;8.38;5.70;;;25.60;99.90;;;;;;5032783;28;20044;-65
2023/08/19 09:14:13;;;;;;;10.07;5.70;;;25.70;99.90;;;;;;5015566;28;20041;-64
2023/08/19 09:16:38;;;;;;;8.40;5.38;;;25.90;99.90;;;;;;5031044;28;20041;-64
2023/08/19 09:19:04;;;;;;;5.75;4.90;;;26.10;99.90;;;;;;5014063;28;20435;-65
2023/08/19 09:21:31;;;;;;;5.72;5.20;;;26.40;99.90;;;;;;5031835;28;20123;-64
2023/08/19 09:24:00;;;;;;;6.35;4.68;;;26.70;99.90;;;;;;5032884;28;20491;-64
2023/08/19 09:26:26;;;;;;;7.15;4.55;;;27.30;99.90;;;;;;5030772;28;20049;-64
2023/08/19 09:28:58;;;;;;;8.60;4.38;;;27.80;99.90;;;;;;5030896;28;20045;-63
2023/08/19 09:31:24;;;;;;;7.68;4.38;;;28.20;99.90;;;;;;5014176;28;20498;-65
2023/08/19 09:33:54;;;;;;;5.75;4.38;;;28.50;99.90;;;;;;5030542;28;20150;-64
2023/08/19 09:36:24;;;;;;;6.97;4.05;;;28.70;99.90;;;;;;5031285;28;20446;-64
2023/08/19 09:38:56;;;;;;;8.25;3.70;;;28.60;99.90;;;;;;5030611;28;20303;-65
2023/08/19 09:41:27;;;;;;;5.22;3.90;;;28.90;86.20;;;;;;5032384;28;20033;-63
2023/08/19 09:43:54;;;;;;;3.88;3.40;;;29.20;85.90;;;;;;5032155;28;20033;-65
2023/08/19 09:46:20;;;;;;;5.07;3.30;;;29.40;65.30;;;;;;5031540;28;20094;-64
2023/08/19 09:48:54;;;;;;;6.38;3.30;;;29.60;51.10;;;;;;5031195;28;20530;-64
2023/08/19 09:51:28;;;;;;;4.18;2.72;;;29.80;41.70;;;;;;5012659;28;20049;-64
2023/08/19 09:53:56;;;;;;;6.35;3.17;;;29.50;29.60;;;;;;5014271;28;20037;-64
2023/08/19 09:56:26;;;;;;;9.40;3.10;;;29.30;19.40;;;;;;5030088;28;20067;-64
2023/08/19 09:58:56;;;;;;;5.78;2.97;;;29.10;24.70;;;;;;5030795;28;20118;-65
2023/08/19 10:01:25;;;;;;;3.58;3.05;;;28.90;16.80;;;;;;5030424;28;20122;-65
2023/08/19 10:03:51;;;;;;;5.75;2.97;;;28.80;24.80;;;;;;5030139;28;20088;-64
2023/08/19 10:06:31;;;;;;;5.05;3.60;;;28.90;23.30;;;;;;5030524;28;20495;-66
2023/08/19 10:09:01;;;;;;;5.88;3.58;;;28.80;23.00;;;;;;5030972;28;20813;-65
2023/08/19 10:11:31;;;;;;;4.93;4.20;;;28.80;24.70;;;;;;5030098;28;20087;-64
2023/08/19 10:14:03;;;;;;;3.88;3.30;;;28.70;26.70;;;;;;5030594;28;20801;-66
2023/08/19 10:16:32;;;;;;;4.65;3.47;;;28.70;23.10;;;;;;5030439;28;20963;-64
2023/08/19 10:19:00;;;;;;;5.15;3.60;;;28.50;23.40;;;;;;5030112;28;20349;-65
2023/08/19 10:21:30;;;;;;;4.15;3.72;;;28.50;27.10;;;;;;5014157;28;20041;-65
2023/08/19 10:23:56;;;;;;;8.95;3.70;;;28.60;27.30;;;;;;5030271;28;20384;-65
2023/08/19 10:26:22;;;;;;;5.72;3.63;;;29.00;28.70;;;;;;5030365;28;20080;-65
2023/08/19 10:29:07;;;;;;;5.07;3.90;;;29.50;22.00;;;;;;5030076;28;20037;-65
2023/08/19 10:31:35;;;;;;;3.60;3.30;;;29.90;1.00;;;;;;4997361;28;20037;-65
2023/08/19 10:34:11;;;;;;;5.60;3.80;;;30.10;1.00;;;;;;5030457;28;20037;-65
2023/08/19 10:36:37;;;;;;;5.28;3.60;;;30.00;1.00;;;;;;5013584;28;20576;-65
2023/08/19 10:39:07;;;;;;;4.97;3.88;;;29.80;1.00;;;;;;5013476;28;20052;-64
2023/08/19 10:41:40;;;;;;;5.72;3.53;;;29.60;1.00;;;;;;5030634;28;20109;-65
2023/08/19 10:44:13;;;;;;;7.63;3.47;;;29.30;6.70;;;;;;5013769;28;20554;-64
2023/08/19 10:46:47;;;;;;;5.50;3.53;;;29.00;7.00;;;;;;5030494;28;20475;-64
2023/08/19 10:49:21;;;;;;;5.30;3.88;;;28.50;13.10;;;;;;5029497;28;20132;-65
2023/08/19 10:52:00;;;;;;;5.07;3.88;;;28.10;16.70;;;;;;5030065;28;20080;-65
2023/08/19 10:54:28;;;;;;;4.97;4.30;;;27.90;30.10;;;;;;5013963;28;20045;-66
2023/08/19 10:57:09;;;;;;;5.95;5.43;;;27.60;45.70;;;;;;5013594;28;20053;-65
2023/08/19 10:59:36;;;;;;;10.82;6.10;;;27.30;85.00;;;;;;5030711;28;20110;-66
2023/08/19 11:02:04;;;;;;;12.27;6.38;;;27.00;99.20;;;;;;5030127;28;20331;-66
2023/08/19 11:04:31;;;;;;;7.15;6.55;;;26.70;99.90;;;;;;5029455;28;20045;-65
2023/08/19 11:06:57;;;;;;;11.07;6.70;;;26.50;99.90;;;;;;5031711;28;20265;-65
2023/08/19 11:09:27;;;;;;;8.15;6.88;;;26.50;99.90;;;;;;5034083;28;20514;-64
2023/08/19 11:11:57;;;;;;;7.68;6.88;;;26.60;99.90;;;;;;5000543;28;20040;-66
2023/08/19 11:14:23;;;;;;;8.55;7.32;;;26.80;99.90;;;;;;5033822;28;20049;-66
2023/08/19 11:16:54;;;;;;;8.68;6.75;;;27.10;99.90;;;;;;5033944;28;20094;-65
2023/08/19 11:19:21;;;;;;;7.32;5.95;;;28.00;99.90;;;;;;5033849;28;20549;-66
2023/08/19 11:21:47;;;;;;;6.07;5.38;;;28.90;99.90;;;;;;5033671;28;20541;-64
2023/08/19 11:24:14;;;;;;;6.97;5.70;;;29.20;99.90;;;;;;5034254;28;20170;-66
2023/08/19 11:26:48;;;;;;;7.20;5.22;;;29.10;98.40;;;;;;5032795;28;20545;-65
2023/08/19 11:29:14;;;;;;;6.75;4.50;;;28.90;89.30;;;;;;5015396;28;20045;-65
2023/08/19 11:31:41;;;;;;;7.15;5.03;;;28.40;86.90;;;;;;5016030;28;20039;-65
2023/08/19 11:34:11;;;;;;;6.60;5.10;;;28.10;99.90;;;;;;5032697;28;20422;-64
2023/08/19 11:36:37;;;;;;;9.68;5.00;;;27.80;99.90;;;;;;5000323;28;20090;-65
2023/08/19 11:39:04;;;;;;;6.50;5.30;;;27.50;99.90;;;;;;5033591;28;20072;-63
2023/08/19 11:41:31;;;;;;;6.18;5.57;;;27.30;99.90;;;;;;5033327;28;20045;-65
2023/08/19 11:43:58;;;;;;;9.38;6.13;;;27.20;99.90;;;;;;5033411;28;20048;-64
2023/08/19 11:46:34;;;;;;;7.85;5.90;;;27.10;99.90;;;;;;5000449;28;20076;-64
2023/08/19 11:49:08;;;;;;;6.05;5.05;;;27.20;99.90;;;;;;5017103;28;20041;-64
2023/08/19 11:51:40;;;;;;;7.38;5.90;;;27.20;99.90;;;;;;5033156;28;20127;-65
2023/08/19 11:54:09;;;;;;;8.88;5.78;;;27.50;99.90;;;;;;5033034;28;20067;-65
2023/08/19 11:56:49;;;;;;;8.75;5.93;;;27.70;99.90;;;;;;5032009;28;20051;-65
2023/08/19 11:59:15;;;;;;;7.57;5.45;;;28.10;99.90;;;;;;5033539;28;20037;-64
2023/08/19 12:01:41;;;;;;;6.82;5.82;;;28.30;99.90;;;;;;5031873;28;20463;-65
2023/08/19 12:04:15;;;;;;;6.53;5.40;;;28.40;99.90;;;;;;5031455;28;20068;-65
2023/08/19 12:06:46;;;;;;;6.78;5.50;;;28.50;96.90;;;;;;5032087;28;20454;-65
2023/08/19 12:09:12;;;;;;;8.23;5.25;;;28.70;94.20;;;;;;5031730;28;20029;-65
2023/08/19 12:11:40;;;;;;;7.32;5.82;;;28.70;91.60;;;;;;5016030;28;20359;-65
2023/08/19 12:14:06;;;;;;;7.78;6.18;;;28.60;82.00;;;;;;5031782;28;20040;-62
2023/08/19 12:16:35;;;;;;;9.38;6.38;;;28.70;91.10;;;;;;5033925;28;20128;-62
2023/08/19 12:19:01;;;;;;;7.00;6.30;;;28.80;86.90;;;;;;5031283;28;20057;-63
2023/08/19 12:21:27;;;;;;;7.60;6.82;;;28.80;83.20;;;;;;5033689;28;20306;-63
2023/08/19 12:23:53;;;;;;;9.02;6.60;;;28.60;86.10;;;;;;5032350;28;20392;-63
2023/08/19 12:26:18;;;;;;;12.88;7.35;;;28.40;90.30;;;;;;5032445;28;20322;-63
2023/08/19 12:28:44;;;;;;;10.30;7.43;;;28.40;87.30;;;;;;5031831;28;20283;-63
2023/08/19 12:31:10;;;;;;;10.05;7.95;;;28.00;91.20;;;;;;5015503;28;20595;-64
2023/08/19 12:33:36;;;;;;;10.50;6.97;;;27.90;88.20;;;;;;5031856;28;20041;-63
2023/08/19 12:36:01;;;;;;;10.43;7.13;;;28.00;94.40;;;;;;5015169;28;20363;-64
2023/08/19 12:38:27;;;;;;;9.35;8.32;;;28.00;97.30;;;;;;5031652;28;20094;-64